Los Gatos, California
Current Conditions -  °F | °C
As of 10:53 AM on Tuesday 27 Jan 2015 (Local Time) from KSJC Reporting Station
Overcast Overcast  
Wind Chill: 65°   Ceiling: 13000
Heat Index: 65°   Visibility: 10mi
Dew Point: 44°   Wind: 12mph
Humidity: 47%   Direction: 100°E
Pressure: 30.19"   Gusts: NA
Location:  37.22°N, 121.97°W
Report Text: KSJC 271853Z 10010KT 10SM FEW036 SCT075 OVC130 18/07 A3019 RMK AO2 SLP222 T01830067
Loading
Personal Weather Stations






























Interactive Weather Map New forecast layout! Learn more

10-Day Weather Forecast

Advertisements
Track Severe Weather on mobile